Terminal Aerodrome Forecast
Issued by NWS

Home | Current Version | Previous Version | Text Only | Print | Product List | Glossary On
Versions: 1 2 3 4 5 6 7 8 9 10 11 12 13 14 15 16 17 18 19 20 21 22 23 24 25 26 27 28 29 30 31 32 33 34
000
FTUS44 KFWD 060329 AAC
TAFDAL
TAF AMD
KDAL 060329Z 0603/0624 19004KT 2SM -DZ BR OVC008
     FM060900 01005KT 2SM BR OVC002
      TEMPO 0610/0613 1/2SM FG OVC002
     FM061500 01013KT P6SM OVC008
     FM061700 01014KT P6SM OVC021=

USA.gov is the U.S. government's official web portal to all federal, state and local government web resources and services.